createdAt,value
2022-12-04T00:00:10.899Z,16.63
2022-12-04T00:05:14.828Z,16.55
2022-12-04T00:10:20.227Z,13.93
2022-12-04T00:15:25.880Z,17.30
2022-12-04T00:20:30.300Z,14.68
2022-12-04T00:25:40.898Z,9.85
2022-12-04T00:30:46.131Z,13.90
2022-12-04T00:35:50.153Z,8.75
2022-12-04T00:40:55.932Z,6.00
2022-12-04T00:45:59.974Z,5.78
2022-12-04T00:51:05.074Z,6.07
2022-12-04T00:56:12.263Z,6.13
2022-12-04T01:01:17.614Z,18.15
2022-12-04T01:06:23.543Z,19.20
2022-12-04T01:11:30.701Z,22.27
2022-12-04T01:16:36.348Z,21.13
2022-12-04T01:26:45.446Z,24.60
2022-12-04T01:31:49.431Z,25.83
2022-12-04T01:36:53.560Z,25.08
2022-12-04T01:41:58.895Z,25.00
2022-12-04T01:47:03.133Z,25.55
2022-12-04T01:52:11.272Z,26.20
2022-12-04T01:57:18.795Z,27.17
2022-12-04T02:02:27.503Z,27.23
2022-12-04T02:07:31.679Z,29.17
2022-12-04T02:12:40.886Z,29.50
2022-12-04T02:17:49.465Z,31.63
2022-12-04T02:23:24.688Z,31.75
2022-12-04T02:28:33.824Z,31.40
2022-12-04T02:33:41.293Z,29.65
2022-12-04T02:38:48.518Z,32.60
2022-12-04T02:43:55.886Z,33.40
2022-12-04T02:49:01.348Z,34.38
2022-12-04T02:54:09.089Z,33.25
2022-12-04T02:59:17.829Z,32.50
2022-12-04T03:04:24.221Z,35.25
2022-12-04T03:09:31.357Z,33.03
2022-12-04T03:14:39.281Z,32.47
2022-12-04T03:19:46.757Z,33.17
2022-12-04T03:24:53.260Z,32.22
2022-12-04T03:30:01.987Z,34.38
2022-12-04T03:35:11.417Z,33.47
2022-12-04T03:40:20.890Z,33.78
2022-12-04T03:45:30.086Z,33.95
2022-12-04T03:50:37.465Z,32.33
2022-12-04T03:55:44.816Z,33.90
2022-12-04T04:00:52.866Z,33.17
2022-12-04T04:06:01.486Z,31.33
2022-12-04T04:11:11.279Z,32.97
2022-12-04T04:16:35.809Z,32.70
2022-12-04T04:21:58.724Z,32.65
2022-12-04T04:27:03.475Z,34.63
2022-12-04T04:32:13.312Z,31.33
2022-12-04T04:37:25.046Z,33.85
2022-12-04T04:42:31.404Z,35.00
2022-12-04T04:47:39.917Z,34.55
2022-12-04T04:52:48.188Z,34.72
2022-12-04T04:57:52.178Z,36.17
2022-12-04T05:02:57.738Z,34.80
2022-12-04T05:08:01.778Z,33.92
2022-12-04T05:13:05.795Z,35.05
2022-12-04T05:18:11.749Z,35.65
2022-12-04T05:23:15.748Z,35.05
2022-12-04T05:28:19.743Z,35.47
2022-12-04T05:33:25.511Z,35.92
2022-12-04T05:38:29.685Z,34.30
2022-12-04T05:43:34.378Z,35.03
2022-12-04T05:48:39.805Z,34.30
2022-12-04T05:53:43.822Z,34.67
2022-12-04T05:58:47.829Z,35.10
2022-12-04T06:03:53.415Z,35.75
2022-12-04T06:08:58.987Z,34.25
2022-12-04T06:14:04.271Z,34.03
2022-12-04T06:19:12.024Z,34.55
2022-12-04T06:24:17.476Z,32.97
2022-12-04T06:29:21.511Z,33.65
2022-12-04T06:34:27.070Z,34.83
2022-12-04T06:39:31.197Z,35.17
2022-12-04T06:44:35.379Z,33.55
2022-12-04T06:49:40.982Z,33.47
2022-12-04T06:54:45.292Z,32.80
2022-12-04T06:59:49.441Z,33.75
2022-12-04T07:04:57.490Z,32.83
2022-12-04T07:10:01.482Z,32.88
2022-12-04T07:15:06.144Z,32.70
2022-12-04T07:20:12.810Z,32.38
2022-12-04T07:25:16.774Z,31.65
2022-12-04T07:30:21.023Z,31.85
2022-12-04T07:35:26.544Z,32.05
2022-12-04T07:40:30.571Z,30.58
2022-12-04T07:45:34.683Z,30.55
2022-12-04T07:50:40.060Z,30.40
2022-12-04T07:55:44.106Z,29.45
2022-12-04T08:00:48.036Z,30.27
2022-12-04T08:05:53.434Z,31.63
2022-12-04T08:10:57.372Z,23.88
2022-12-04T08:16:03.056Z,29.23
2022-12-04T08:21:09.951Z,27.25
2022-12-04T08:26:14.385Z,25.98
2022-12-04T08:31:20.650Z,31.60
2022-12-04T08:36:26.498Z,29.00
2022-12-04T08:41:30.539Z,28.08
2022-12-04T08:46:34.742Z,29.90
2022-12-04T08:51:41.081Z,27.13
2022-12-04T08:56:45.264Z,28.48
2022-12-04T09:01:51.809Z,25.73
2022-12-04T09:06:57.289Z,27.25
2022-12-04T09:12:01.283Z,33.17
2022-12-04T09:17:05.215Z,25.23
2022-12-04T09:22:11.009Z,26.90
2022-12-04T09:27:15.257Z,20.48
2022-12-04T09:32:19.169Z,22.20
2022-12-04T09:37:24.571Z,20.58
2022-12-04T09:42:39.031Z,22.35
2022-12-04T09:47:45.760Z,14.13
2022-12-04T09:52:56.238Z,22.10
2022-12-04T09:58:02.554Z,22.00
2022-12-04T10:03:08.596Z,24.90
2022-12-04T10:08:19.655Z,24.38
2022-12-04T10:13:35.920Z,25.05
2022-12-04T10:23:55.177Z,22.92
2022-12-04T10:29:02.479Z,23.05
2022-12-04T10:34:09.377Z,26.80
2022-12-04T10:39:19.195Z,28.70
2022-12-04T10:44:23.421Z,24.65
2022-12-04T10:49:29.041Z,22.83
2022-12-04T10:54:35.892Z,17.10
2022-12-04T10:59:42.058Z,20.95
2022-12-04T11:04:52.885Z,25.00
2022-12-04T11:10:00.395Z,19.55
2022-12-04T11:15:14.699Z,23.35
2022-12-04T11:20:20.517Z,23.15
2022-12-04T11:25:27.460Z,13.00
2022-12-04T11:30:34.200Z,15.52
2022-12-04T11:35:38.172Z,11.68
2022-12-04T11:40:47.791Z,11.45
2022-12-04T11:45:56.349Z,21.90
2022-12-04T11:51:08.131Z,16.80
2022-12-04T11:56:24.252Z,7.60
2022-12-04T12:01:38.206Z,10.18
2022-12-04T12:06:47.466Z,18.45
2022-12-04T12:11:57.235Z,11.60
2022-12-04T12:17:12.713Z,19.33
2022-12-04T12:22:27.143Z,4.28
2022-12-04T12:27:43.644Z,17.13
2022-12-04T12:33:04.151Z,22.60
2022-12-04T12:38:12.437Z,26.98
2022-12-04T12:43:22.697Z,21.38
2022-12-04T12:48:30.279Z,20.05
2022-12-04T12:53:38.312Z,13.52
2022-12-04T12:58:46.638Z,17.42
2022-12-04T13:03:55.483Z,20.98
2022-12-04T13:09:07.075Z,15.98
2022-12-04T13:14:14.389Z,18.17
2022-12-04T13:19:20.244Z,22.23
2022-12-04T13:30:03.898Z,13.02
2022-12-04T13:35:14.776Z,16.20
2022-12-04T13:40:34.045Z,22.60
2022-12-04T13:45:41.362Z,28.30
2022-12-04T13:50:45.476Z,18.67
2022-12-04T13:56:07.347Z,20.00
2022-12-04T14:01:26.323Z,25.38
2022-12-04T14:06:34.487Z,23.40
2022-12-04T14:11:45.847Z,19.73
2022-12-04T14:16:51.379Z,24.90
2022-12-04T14:21:55.458Z,23.38
2022-12-04T14:27:15.086Z,24.42
2022-12-04T14:32:23.853Z,25.33
2022-12-04T14:37:31.799Z,27.30
2022-12-04T14:42:38.617Z,27.73
2022-12-04T14:47:47.770Z,27.35
2022-12-04T14:52:56.137Z,25.63
2022-12-04T14:58:21.718Z,23.25
2022-12-04T15:03:28.218Z,8.23
2022-12-04T15:08:32.327Z,24.27
2022-12-04T15:13:39.102Z,21.95
2022-12-04T15:18:54.614Z,27.33
2022-12-04T15:23:58.757Z,23.83
2022-12-04T15:29:05.149Z,28.23
2022-12-04T15:34:19.313Z,25.50
2022-12-04T15:39:24.693Z,29.92
2022-12-04T15:44:31.300Z,30.38
2022-12-04T15:49:36.771Z,26.83
2022-12-04T15:54:44.169Z,26.33
2022-12-04T15:59:51.171Z,22.80
2022-12-04T16:04:56.736Z,23.30
2022-12-04T16:10:04.073Z,22.55
2022-12-04T16:15:09.594Z,25.38
2022-12-04T16:20:15.446Z,6.70
2022-12-04T16:30:23.055Z,22.90
2022-12-04T16:35:30.599Z,24.70
2022-12-04T16:40:34.636Z,27.17
2022-12-04T16:45:39.339Z,25.63
2022-12-04T16:50:45.245Z,27.42
2022-12-04T16:55:50.466Z,25.05
2022-12-04T17:00:56.723Z,26.17
2022-12-04T17:06:02.776Z,25.58
2022-12-04T17:11:07.127Z,24.98
2022-12-04T17:16:14.859Z,28.23
2022-12-04T17:21:20.685Z,27.42
2022-12-04T17:26:24.622Z,27.35
2022-12-04T17:31:28.794Z,27.80
2022-12-04T17:36:34.288Z,24.55
2022-12-04T17:41:38.358Z,25.33
2022-12-04T17:46:42.480Z,21.77
2022-12-04T17:51:47.851Z,25.52
2022-12-04T17:56:57.426Z,24.00
2022-12-04T18:02:01.946Z,23.27
2022-12-04T18:07:07.257Z,26.60
2022-12-04T18:12:12.293Z,8.27
2022-12-04T18:17:17.676Z,7.17
2022-12-04T18:22:23.064Z,20.13
2022-12-04T18:27:26.996Z,9.13
2022-12-04T18:32:30.875Z,25.55
2022-12-04T18:37:36.241Z,23.23
2022-12-04T18:42:40.225Z,19.17
2022-12-04T18:47:44.251Z,26.85
2022-12-04T18:52:56.876Z,25.05
2022-12-04T18:58:02.794Z,26.08
2022-12-04T19:03:07.375Z,31.52
2022-12-04T19:08:12.885Z,27.83
2022-12-04T19:13:17.399Z,21.63
2022-12-04T19:18:21.345Z,24.05
2022-12-04T19:23:26.803Z,29.15
2022-12-04T19:28:30.981Z,20.30
2022-12-04T19:33:34.903Z,24.73
2022-12-04T19:38:40.370Z,21.75
2022-12-04T19:43:45.807Z,27.52
2022-12-04T19:48:50.569Z,18.77
2022-12-04T19:53:56.426Z,20.45
2022-12-04T20:04:09.250Z,18.88
2022-12-04T20:09:17.544Z,15.70
2022-12-04T20:14:21.640Z,15.63
2022-12-04T20:19:25.694Z,19.58
2022-12-04T20:24:31.241Z,22.13
2022-12-04T20:29:36.364Z,19.50
2022-12-04T20:34:43.758Z,14.60
2022-12-04T20:39:49.395Z,20.25
2022-12-04T20:44:55.642Z,12.52
2022-12-04T20:49:59.694Z,18.48
2022-12-04T20:55:05.867Z,18.10
2022-12-04T21:00:10.805Z,20.13
2022-12-04T21:05:14.716Z,11.43
2022-12-04T21:10:20.030Z,20.27
2022-12-04T21:15:41.716Z,11.30
2022-12-04T21:20:45.880Z,24.10
2022-12-04T21:25:51.231Z,19.13
2022-12-04T21:31:01.897Z,12.82
2022-12-04T21:36:07.147Z,17.55
2022-12-04T21:41:33.277Z,15.25
2022-12-04T21:46:37.386Z,14.65
2022-12-04T21:51:57.383Z,16.88
2022-12-04T21:57:03.485Z,11.60
2022-12-04T22:02:07.413Z,9.13
2022-12-04T22:07:11.482Z,11.73
2022-12-04T22:17:41.496Z,5.77
2022-12-04T22:22:45.474Z,34.15
2022-12-04T22:27:50.863Z,15.45
2022-12-04T22:32:55.532Z,16.38
2022-12-04T22:37:59.433Z,9.35
2022-12-04T22:43:04.772Z,12.43
2022-12-04T22:48:08.798Z,5.68
2022-12-04T22:53:12.757Z,9.77
2022-12-04T22:58:18.213Z,19.90
2022-12-04T23:03:22.211Z,9.50
2022-12-04T23:08:26.560Z,18.75
2022-12-04T23:13:31.847Z,18.40
2022-12-04T23:18:36.507Z,11.70
2022-12-04T23:23:42.042Z,13.40
2022-12-04T23:28:47.582Z,13.90
2022-12-04T23:33:51.637Z,22.70
2022-12-04T23:38:55.688Z,18.77
2022-12-04T23:44:01.125Z,25.20
2022-12-04T23:49:05.089Z,20.60
2022-12-04T23:54:09.037Z,30.33
2022-12-04T23:59:14.316Z,14.88
